Pageville, Pennsylvania
Current Conditions -  °F | °C
As of 5:53 PM on Friday 31 Oct 2014 (Local Time) from KHZY Reporting Station
Overcast Overcast  
Wind Chill: 46°   Ceiling: 3900
Heat Index: 46°   Visibility: 10mi
Dew Point: 38°   Wind: 0mph
Humidity: 73%   Direction: NA
Pressure: 29.87"   Gusts: NA
Location:  41.8831°N, 80.4041°W
Report Text: KHZY 312153Z AUTO 00000KT 10SM BKN039 OVC055 08/03 A2987 RMK AO2 SLP119 T00780033
Loading
Personal Weather Stations






























Interactive Weather Map
Tropical Storm Tracking
New forecast layout! Learn more

10-Day Weather Forecast

Advertisements
Track Severe Weather on mobile